Diomede, Alaska
Current Conditions -  °F | °C
As of 2:23 PM on Saturday 25 Oct 2014 (Local Time) from PATE Reporting Station
Light Snow Light Snow  
Wind Chill: 19°   Ceiling: 300
Heat Index: 30°   Visibility: 1.5mi
Dew Point: 30°   Wind: 16mph
Humidity: 100%   Direction: 260°W
Pressure: 29.55"   Gusts: NA
Location:  65.1617°N, 164.975°W
Report Text: PATE 252223Z AUTO 26014KT 1 1/2SM -SN BR BKN003 OVC010 M01/M01 A2955 RMK AO2 CIG 003V007 P0000 FZRANO
Loading
Personal Weather Stations






























Interactive Weather Map New forecast layout! Learn more

10-Day Weather Forecast

Advertisements
Track Severe Weather on mobile